Time;durP1;ratioP1;P1;durP2;ratioP2;P2;SDS_P1;SDS_P2;PMS_P1;PMS_P2;Temp;Humidity;BMP_temperature;BMP_pressure;BME280_temperature;BME280_humidity;BME280_pressure;Samples;Min_cycle;Max_cycle;Signal;HPM_P1;HPM_P2
2023/11/08 00:00:17;;;;;;;1.30;0.80;;;18.50;72.20;;;;;;5055713;28;20469;-89
2023/11/08 00:02:44;;;;;;;1.03;0.80;;;18.50;72.10;;;;;;5055373;28;20439;-88
2023/11/08 00:05:11;;;;;;;2.33;0.83;;;18.50;72.20;;;;;;5055219;28;20866;-89
2023/11/08 00:07:40;;;;;;;2.37;0.83;;;18.50;72.10;;;;;;5055087;28;20495;-89
2023/11/08 00:10:09;;;;;;;1.90;1.00;;;18.50;72.10;;;;;;5055162;28;21000;-88
2023/11/08 00:12:36;;;;;;;1.00;0.70;;;18.50;72.10;;;;;;5054804;28;20571;-89
2023/11/08 00:15:03;;;;;;;1.30;0.93;;;18.50;72.10;;;;;;5055087;28;20471;-89
2023/11/08 00:17:31;;;;;;;1.00;0.70;;;18.50;72.10;;;;;;5054989;28;20448;-89
2023/11/08 00:19:58;;;;;;;1.07;0.77;;;18.50;72.10;;;;;;5054910;28;20470;-88
2023/11/08 00:22:25;;;;;;;1.03;0.73;;;18.50;72.10;;;;;;5054834;28;20526;-88
2023/11/08 00:24:52;;;;;;;2.60;1.00;;;18.50;72.10;;;;;;5054737;28;20479;-88
2023/11/08 00:27:19;;;;;;;1.47;0.93;;;18.50;72.20;;;;;;5054673;28;20466;-88
2023/11/08 00:29:47;;;;;;;1.47;0.80;;;18.50;72.20;;;;;;5054504;28;20440;-88
2023/11/08 00:32:16;;;;;;;1.20;0.80;;;18.50;72.10;;;;;;5054744;28;20438;-88
2023/11/08 00:34:44;;;;;;;1.20;0.87;;;18.50;72.10;;;;;;5054468;28;20835;-88
2023/11/08 00:37:12;;;;;;;1.10;0.77;;;18.40;72.10;;;;;;5054556;28;20515;-88
2023/11/08 00:39:38;;;;;;;1.30;0.80;;;18.50;72.10;;;;;;5054516;28;20452;-88
2023/11/08 00:42:05;;;;;;;1.10;0.80;;;18.40;72.00;;;;;;5054509;28;20497;-88
2023/11/08 00:44:32;;;;;;;1.00;0.77;;;18.40;72.00;;;;;;5054390;28;20436;-88
2023/11/08 00:46:59;;;;;;;1.10;0.80;;;18.50;72.10;;;;;;5054338;28;20529;-88
2023/11/08 00:49:25;;;;;;;1.27;0.70;;;18.40;72.00;;;;;;5054393;28;20450;-88
2023/11/08 00:51:54;;;;;;;1.10;0.80;;;18.40;72.10;;;;;;5054312;28;20495;-88
2023/11/08 00:54:20;;;;;;;1.10;0.80;;;18.40;72.00;;;;;;5054130;28;20565;-88
2023/11/08 00:56:47;;;;;;;1.00;0.70;;;18.40;72.00;;;;;;5054196;28;20523;-89
2023/11/08 00:59:14;;;;;;;1.00;0.77;;;18.40;72.00;;;;;;5054238;28;20525;-88
2023/11/08 01:01:41;;;;;;;1.00;0.80;;;18.40;72.00;;;;;;5054079;28;20535;-88
2023/11/08 01:04:11;;;;;;;1.00;0.70;;;18.50;72.10;;;;;;5054024;28;20526;-89
2023/11/08 01:06:38;;;;;;;1.00;0.70;;;18.40;72.00;;;;;;5053847;28;20481;-88
2023/11/08 01:09:07;;;;;;;1.00;0.80;;;18.40;72.00;;;;;;5053901;28;20504;-88
2023/11/08 01:11:34;;;;;;;1.00;0.67;;;18.40;72.00;;;;;;5053952;28;20825;-88
2023/11/08 01:14:01;;;;;;;1.10;0.60;;;18.40;72.00;;;;;;5053795;28;21104;-92
2023/11/08 01:16:28;;;;;;;1.53;0.63;;;18.40;72.00;;;;;;5053857;28;20941;-89
2023/11/08 01:18:55;;;;;;;1.00;0.70;;;18.40;72.00;;;;;;5053795;28;20531;-88
2023/11/08 01:21:22;;;;;;;1.30;1.00;;;18.40;72.10;;;;;;5053707;28;20506;-88
2023/11/08 01:23:49;;;;;;;1.57;0.80;;;18.40;72.00;;;;;;5053761;28;20435;-88
2023/11/08 01:26:18;;;;;;;1.30;0.77;;;18.40;72.10;;;;;;5053596;28;20430;-88
2023/11/08 01:28:45;;;;;;;1.00;0.70;;;18.40;72.00;;;;;;5053715;28;20855;-89
2023/11/08 01:31:12;;;;;;;1.00;0.70;;;18.50;72.10;;;;;;5053561;28;20447;-89
2023/11/08 01:33:39;;;;;;;0.97;0.73;;;18.40;72.10;;;;;;5053413;28;20578;-88
2023/11/08 01:36:06;;;;;;;1.20;0.80;;;18.40;72.10;;;;;;5053530;28;20468;-89
2023/11/08 01:38:33;;;;;;;1.40;0.80;;;18.40;72.10;;;;;;5053458;28;20883;-89
2023/11/08 01:41:00;;;;;;;1.10;0.90;;;18.40;72.00;;;;;;5052925;28;20852;-88
2023/11/08 01:43:32;;;;;;;1.47;0.80;;;18.40;72.10;;;;;;5053547;28;20468;-89
2023/11/08 01:46:08;;;;;;;1.20;0.90;;;18.40;72.00;;;;;;5053366;28;20442;-88
2023/11/08 01:48:35;;;;;;;1.50;0.73;;;18.40;72.00;;;;;;5053565;28;20431;-88
2023/11/08 01:51:04;;;;;;;1.30;1.00;;;18.40;72.00;;;;;;5053179;28;20438;-88
2023/11/08 01:53:33;;;;;;;1.00;0.67;;;18.40;72.00;;;;;;5053177;28;20827;-88
2023/11/08 01:56:01;;;;;;;1.10;0.90;;;18.40;72.10;;;;;;5053123;28;20950;-89
2023/11/08 01:58:31;;;;;;;1.20;0.90;;;18.40;72.00;;;;;;5053270;28;20866;-88
2023/11/08 02:01:00;;;;;;;1.10;0.80;;;18.40;72.00;;;;;;5053164;28;20447;-88
2023/11/08 02:03:28;;;;;;;1.00;0.70;;;18.40;72.10;;;;;;5053132;28;20517;-89
2023/11/08 02:05:56;;;;;;;0.90;0.60;;;18.40;72.10;;;;;;5052955;28;20532;-88
2023/11/08 02:08:23;;;;;;;1.10;0.70;;;18.40;72.00;;;;;;5053119;28;20460;-88
2023/11/08 02:10:50;;;;;;;1.00;0.70;;;18.40;72.00;;;;;;5053432;28;20791;-88
2023/11/08 02:13:17;;;;;;;1.67;0.97;;;18.40;72.00;;;;;;5052768;28;20471;-89
2023/11/08 02:15:45;;;;;;;1.20;0.83;;;18.40;72.00;;;;;;5053177;28;20436;-88
2023/11/08 02:18:12;;;;;;;1.20;0.80;;;18.40;72.10;;;;;;5052925;28;21035;-88
2023/11/08 02:20:39;;;;;;;0.93;0.70;;;18.40;72.10;;;;;;5053178;28;20451;-88
2023/11/08 02:23:06;;;;;;;1.10;0.80;;;18.40;72.10;;;;;;5053071;28;20436;-88
2023/11/08 02:25:34;;;;;;;1.00;0.80;;;18.40;72.00;;;;;;5052762;28;20529;-88
2023/11/08 02:28:01;;;;;;;1.13;0.80;;;18.40;72.00;;;;;;5053035;28;20443;-88
2023/11/08 02:30:28;;;;;;;1.20;0.80;;;18.40;72.00;;;;;;5052863;28;20925;-88
2023/11/08 02:32:55;;;;;;;1.30;0.80;;;18.40;72.00;;;;;;5052955;28;20447;-89
2023/11/08 02:35:22;;;;;;;1.43;0.80;;;18.40;72.10;;;;;;5052706;28;20518;-88
2023/11/08 02:37:49;;;;;;;1.20;0.70;;;18.40;72.00;;;;;;5052758;28;20461;-88
2023/11/08 02:40:16;;;;;;;1.67;0.90;;;18.40;72.00;;;;;;5052783;28;20472;-88
2023/11/08 02:42:46;;;;;;;1.10;0.83;;;18.40;72.00;;;;;;5052763;28;20864;-88
2023/11/08 02:45:13;;;;;;;1.37;0.70;;;18.40;72.10;;;;;;5052542;28;20439;-89
2023/11/08 02:47:41;;;;;;;1.30;0.80;;;18.40;72.00;;;;;;5052698;28;20434;-88
2023/11/08 02:50:08;;;;;;;1.20;0.83;;;18.40;72.00;;;;;;5052806;28;20529;-88
2023/11/08 02:52:35;;;;;;;1.00;0.70;;;18.40;72.00;;;;;;5054229;28;20527;-88
2023/11/08 02:55:03;;;;;;;1.27;0.80;;;18.40;72.00;;;;;;5056312;28;20844;-88
2023/11/08 02:57:30;;;;;;;1.13;0.70;;;18.40;72.00;;;;;;5056506;28;20534;-88
2023/11/08 03:00:03;;;;;;;1.00;0.70;;;18.40;72.00;;;;;;5056337;28;20793;-88
2023/11/08 03:02:33;;;;;;;1.20;0.70;;;18.40;72.00;;;;;;5056760;28;20444;-88
2023/11/08 03:05:01;;;;;;;1.10;0.80;;;18.40;72.00;;;;;;5056396;28;20457;-88
2023/11/08 03:07:28;;;;;;;1.00;0.70;;;18.40;72.00;;;;;;5056331;28;20457;-89
2023/11/08 03:09:55;;;;;;;1.30;0.77;;;18.40;72.00;;;;;;5056224;28;20530;-88
2023/11/08 03:12:21;;;;;;;1.00;0.70;;;18.40;72.10;;;;;;5056197;28;20472;-88
2023/11/08 03:14:48;;;;;;;1.00;0.73;;;18.40;72.00;;;;;;5055941;28;20523;-89
2023/11/08 03:17:17;;;;;;;1.30;0.80;;;18.40;72.00;;;;;;5056511;28;20436;-88
2023/11/08 03:19:43;;;;;;;1.40;0.90;;;18.40;72.00;;;;;;5056172;28;20446;-89
2023/11/08 03:22:12;;;;;;;1.20;0.80;;;18.40;72.00;;;;;;5056150;28;20514;-89
2023/11/08 03:24:39;;;;;;;1.37;0.87;;;18.40;72.00;;;;;;5055882;28;20436;-88
2023/11/08 03:27:06;;;;;;;1.57;0.70;;;18.40;71.90;;;;;;5056108;28;20526;-88
2023/11/08 03:29:33;;;;;;;1.43;0.90;;;18.40;72.00;;;;;;5055841;28;20439;-88
2023/11/08 03:32:02;;;;;;;1.17;0.80;;;18.40;72.00;;;;;;5055867;28;20452;-89
2023/11/08 03:34:33;;;;;;;1.00;0.70;;;18.40;72.00;;;;;;5055707;28;20481;-88
2023/11/08 03:37:00;;;;;;;1.00;0.80;;;18.50;72.10;;;;;;5055658;28;20438;-88
2023/11/08 03:39:27;;;;;;;0.90;0.70;;;18.40;72.90;;;;;;5055775;28;20497;-88
2023/11/08 03:41:54;;;;;;;1.60;0.80;;;18.40;72.00;;;;;;5055723;28;20860;-88
2023/11/08 03:44:20;;;;;;;1.30;0.90;;;18.40;72.00;;;;;;5055545;28;20527;-89
2023/11/08 03:46:47;;;;;;;1.00;0.70;;;18.40;72.00;;;;;;5055670;28;20997;-88
2023/11/08 03:49:14;;;;;;;1.00;0.70;;;18.40;72.00;;;;;;5055585;28;20914;-88
2023/11/08 03:51:42;;;;;;;1.10;0.83;;;18.40;72.00;;;;;;5055543;28;20475;-90
2023/11/08 03:54:10;;;;;;;1.40;0.70;;;18.40;72.00;;;;;;5055408;28;21002;-88
2023/11/08 03:56:37;;;;;;;1.10;0.77;;;18.40;72.00;;;;;;5055349;28;20446;-89
2023/11/08 03:59:04;;;;;;;1.00;0.70;;;18.40;72.20;;;;;;5055253;28;20841;-88
2023/11/08 04:01:31;;;;;;;1.10;0.80;;;18.40;72.00;;;;;;5055396;28;20466;-88
2023/11/08 04:03:58;;;;;;;1.40;0.90;;;18.40;72.00;;;;;;5054569;28;20527;-88
2023/11/08 04:06:25;;;;;;;1.13;0.70;;;18.40;72.00;;;;;;5055294;28;20441;-88
2023/11/08 04:08:53;;;;;;;1.00;0.70;;;18.40;72.10;;;;;;5055095;28;20563;-88
2023/11/08 04:11:20;;;;;;;1.43;0.80;;;18.40;72.10;;;;;;5054819;28;20473;-89
2023/11/08 04:13:49;;;;;;;1.00;0.70;;;18.40;72.00;;;;;;5054888;28;20523;-89
2023/11/08 04:16:15;;;;;;;0.90;0.70;;;18.40;72.10;;;;;;5055001;28;20439;-88
2023/11/08 04:18:43;;;;;;;1.20;0.70;;;18.30;71.90;;;;;;5054948;28;20446;-88
2023/11/08 04:21:10;;;;;;;1.27;0.90;;;18.30;71.90;;;;;;5055040;28;20462;-89
2023/11/08 04:23:37;;;;;;;1.20;0.90;;;18.30;71.90;;;;;;5054839;28;20781;-88
2023/11/08 04:26:06;;;;;;;1.20;0.80;;;18.30;71.90;;;;;;5054915;28;20446;-88
2023/11/08 04:28:33;;;;;;;1.00;0.70;;;18.30;71.90;;;;;;5054805;28;20567;-89
2023/11/08 04:31:00;;;;;;;1.03;0.80;;;18.30;71.90;;;;;;5054725;28;20526;-89
2023/11/08 04:33:27;;;;;;;1.03;0.70;;;18.30;72.00;;;;;;5054788;28;20497;-88
2023/11/08 04:35:55;;;;;;;1.10;0.80;;;18.30;71.90;;;;;;5054463;28;20521;-88
2023/11/08 04:38:22;;;;;;;1.03;0.70;;;18.30;71.90;;;;;;5054499;28;20861;-89
2023/11/08 04:40:48;;;;;;;1.00;0.70;;;18.40;72.10;;;;;;5054529;28;20434;-89
2023/11/08 04:43:17;;;;;;;1.00;0.67;;;18.30;72.00;;;;;;5054543;28;20992;-88
2023/11/08 04:45:43;;;;;;;1.30;0.90;;;18.30;71.90;;;;;;5054313;28;20518;-89
2023/11/08 04:48:11;;;;;;;1.03;0.70;;;18.30;71.90;;;;;;5054519;28;20486;-89
2023/11/08 04:50:39;;;;;;;1.00;0.60;;;18.30;71.90;;;;;;5054389;28;20450;-88
2023/11/08 04:53:06;;;;;;;1.00;0.80;;;18.30;71.90;;;;;;5054342;28;20431;-89
2023/11/08 04:55:33;;;;;;;1.10;0.90;;;18.30;72.80;;;;;;5054293;28;20581;-88
2023/11/08 04:58:00;;;;;;;1.40;0.80;;;18.30;71.90;;;;;;5054259;28;20551;-88
2023/11/08 05:00:28;;;;;;;1.10;0.90;;;18.30;71.90;;;;;;5054302;28;20530;-89
2023/11/08 05:02:55;;;;;;;1.07;0.80;;;18.30;72.00;;;;;;5054344;28;20582;-88
2023/11/08 05:05:22;;;;;;;1.20;0.90;;;18.30;71.90;;;;;;5054122;28;20440;-88
2023/11/08 05:07:48;;;;;;;1.60;0.70;;;18.30;71.90;;;;;;5053895;28;20539;-89
2023/11/08 05:10:15;;;;;;;1.00;0.70;;;18.30;71.90;;;;;;5053938;28;20536;-89
2023/11/08 05:12:42;;;;;;;1.53;1.03;;;18.30;71.90;;;;;;5053930;28;20476;-89
2023/11/08 05:15:11;;;;;;;1.10;0.73;;;18.30;72.00;;;;;;5053004;28;20484;-88
2023/11/08 05:17:42;;;;;;;1.10;0.80;;;18.30;72.00;;;;;;5053823;28;20438;-88
2023/11/08 05:20:10;;;;;;;1.50;0.97;;;18.30;72.00;;;;;;5054188;28;20527;-88
2023/11/08 05:22:38;;;;;;;1.13;0.90;;;18.30;72.00;;;;;;5054023;28;20442;-89
2023/11/08 05:25:06;;;;;;;1.10;0.70;;;18.30;72.00;;;;;;5053738;28;20446;-89
2023/11/08 05:27:35;;;;;;;1.10;0.70;;;18.30;72.00;;;;;;5053944;28;20516;-89
2023/11/08 05:30:01;;;;;;;1.00;0.70;;;18.30;72.00;;;;;;5053726;28;20538;-89
2023/11/08 05:32:28;;;;;;;1.60;0.80;;;18.30;72.00;;;;;;5053816;28;20975;-89
2023/11/08 05:34:57;;;;;;;1.00;0.70;;;18.30;72.00;;;;;;5053440;28;20498;-87
2023/11/08 05:37:24;;;;;;;1.00;0.77;;;18.30;72.00;;;;;;5053425;28;20467;-86
2023/11/08 05:39:53;;;;;;;1.10;0.70;;;18.30;72.00;;;;;;5053422;28;20523;-89
2023/11/08 05:42:22;;;;;;;1.00;0.80;;;18.30;72.00;;;;;;5053508;28;20440;-89
2023/11/08 05:44:50;;;;;;;1.13;0.80;;;18.30;72.00;;;;;;5053179;28;20431;-86
2023/11/08 05:47:17;;;;;;;1.00;0.70;;;18.30;72.00;;;;;;5053481;28;20556;-87
2023/11/08 05:49:44;;;;;;;1.20;0.77;;;18.30;72.00;;;;;;5053461;28;20870;-86
2023/11/08 05:52:13;;;;;;;1.27;0.70;;;18.30;72.00;;;;;;5053334;28;20531;-87
2023/11/08 05:54:40;;;;;;;1.00;0.70;;;18.30;72.00;;;;;;5053137;28;20530;-87
2023/11/08 05:57:07;;;;;;;1.00;0.63;;;18.30;72.00;;;;;;5053265;28;20776;-87
2023/11/08 05:59:34;;;;;;;2.20;0.80;;;18.30;72.00;;;;;;5053432;28;20884;-89
2023/11/08 06:02:01;;;;;;;1.00;0.77;;;18.30;72.00;;;;;;5053256;28;20442;-87
2023/11/08 06:04:28;;;;;;;1.00;0.70;;;18.30;72.00;;;;;;5053163;28;20536;-89
2023/11/08 06:06:55;;;;;;;1.03;0.70;;;18.30;72.00;;;;;;5053084;28;20886;-87
2023/11/08 06:09:23;;;;;;;1.00;0.60;;;18.30;72.00;;;;;;5053133;28;20438;-89
2023/11/08 06:11:50;;;;;;;1.00;0.63;;;18.30;72.00;;;;;;5052757;28;20545;-87
2023/11/08 06:14:17;;;;;;;1.00;0.67;;;18.30;71.90;;;;;;5053036;28;20916;-86
2023/11/08 06:16:44;;;;;;;0.93;0.70;;;18.30;71.90;;;;;;5052996;28;20920;-87
2023/11/08 06:19:11;;;;;;;1.10;0.80;;;18.30;71.90;;;;;;5053071;28;20436;-86
2023/11/08 06:21:38;;;;;;;1.00;0.80;;;18.30;72.00;;;;;;5053213;28;20978;-87
2023/11/08 06:24:05;;;;;;;1.77;0.70;;;18.30;72.80;;;;;;5052919;28;20517;-87
2023/11/08 06:26:33;;;;;;;1.00;0.70;;;18.30;71.90;;;;;;5054585;28;20442;-87
2023/11/08 06:29:00;;;;;;;1.50;0.90;;;18.30;72.00;;;;;;5057299;28;20526;-89
2023/11/08 06:31:34;;;;;;;1.30;0.73;;;18.30;72.00;;;;;;5056954;28;20536;-86
2023/11/08 06:34:01;;;;;;;1.20;0.80;;;18.30;72.00;;;;;;5057102;28;20534;-89
2023/11/08 06:36:28;;;;;;;1.10;0.70;;;18.30;72.00;;;;;;5056953;28;20519;-89
2023/11/08 06:38:55;;;;;;;1.10;0.80;;;18.30;72.00;;;;;;5056785;28;20463;-89
2023/11/08 06:41:22;;;;;;;1.20;0.80;;;18.30;72.00;;;;;;5056827;28;20790;-90
2023/11/08 06:43:51;;;;;;;1.27;0.90;;;18.30;71.90;;;;;;5056688;28;20440;-89
2023/11/08 06:46:18;;;;;;;1.17;0.80;;;18.30;71.90;;;;;;5056907;28;20440;-89
2023/11/08 06:48:46;;;;;;;1.50;0.80;;;18.30;71.90;;;;;;5056686;28;20435;-87
2023/11/08 06:51:13;;;;;;;1.10;0.70;;;18.20;71.90;;;;;;5056611;28;20442;-90
2023/11/08 06:53:40;;;;;;;1.03;0.80;;;18.30;72.00;;;;;;5056727;28;20434;-87
2023/11/08 06:56:09;;;;;;;2.13;0.80;;;18.30;71.90;;;;;;5056421;28;20488;-87
2023/11/08 06:58:36;;;;;;;1.00;0.70;;;18.30;71.90;;;;;;5056617;28;20447;-88
2023/11/08 07:01:05;;;;;;;1.00;0.70;;;18.30;71.90;;;;;;5056450;28;20797;-87
2023/11/08 07:03:32;;;;;;;1.10;0.70;;;18.30;71.90;;;;;;5056434;28;20432;-87
2023/11/08 07:05:59;;;;;;;0.90;0.80;;;18.30;71.90;;;;;;5056386;28;20517;-87
2023/11/08 07:08:26;;;;;;;1.50;0.80;;;18.20;71.80;;;;;;5056364;28;20557;-87
2023/11/08 07:10:53;;;;;;;1.00;0.70;;;18.30;71.90;;;;;;5056209;28;20440;-87
2023/11/08 07:13:20;;;;;;;1.20;0.70;;;18.30;71.90;;;;;;5056209;28;20527;-88
2023/11/08 07:15:47;;;;;;;1.10;0.80;;;18.30;71.90;;;;;;5056189;28;21070;-87
2023/11/08 07:18:15;;;;;;;1.10;0.80;;;18.30;71.90;;;;;;5056176;28;20482;-87
2023/11/08 07:20:42;;;;;;;1.30;0.90;;;18.30;71.90;;;;;;5056114;28;20526;-87
2023/11/08 07:23:10;;;;;;;1.00;0.70;;;18.30;71.90;;;;;;5056066;28;20477;-87
2023/11/08 07:25:37;;;;;;;1.00;0.80;;;18.30;71.80;;;;;;5055876;28;20517;-87
2023/11/08 07:28:05;;;;;;;1.30;0.90;;;18.30;71.80;;;;;;5055925;28;20933;-87
2023/11/08 07:30:32;;;;;;;1.00;0.70;;;18.30;71.80;;;;;;5055860;28;20434;-87
2023/11/08 07:33:00;;;;;;;1.20;0.90;;;18.30;71.80;;;;;;5055785;28;20433;-87
2023/11/08 07:35:29;;;;;;;3.10;1.00;;;18.30;71.80;;;;;;5055534;28;20481;-87
2023/11/08 07:37:56;;;;;;;1.37;0.80;;;18.30;71.70;;;;;;5054720;28;20465;-87
2023/11/08 07:40:22;;;;;;;1.03;0.70;;;18.30;71.70;;;;;;5055703;28;20443;-87
2023/11/08 07:42:49;;;;;;;1.10;0.80;;;18.40;72.60;;;;;;5055792;28;20467;-87
2023/11/08 07:45:16;;;;;;;1.00;0.70;;;18.40;71.80;;;;;;5055473;28;20520;-87
2023/11/08 07:47:45;;;;;;;1.00;0.60;;;18.40;71.70;;;;;;5055754;28;20439;-87
2023/11/08 07:50:14;;;;;;;0.97;0.70;;;18.40;71.80;;;;;;5055651;28;20812;-88
2023/11/08 07:52:42;;;;;;;1.00;0.70;;;18.40;71.70;;;;;;5055479;28;20439;-87
2023/11/08 07:55:11;;;;;;;1.10;0.70;;;18.40;71.80;;;;;;5055379;28;20438;-87
2023/11/08 07:57:40;;;;;;;1.47;0.90;;;18.40;71.70;;;;;;5055331;28;20527;-87
2023/11/08 08:00:14;;;;;;;1.40;0.80;;;18.40;71.70;;;;;;5055385;28;20437;-87
2023/11/08 08:02:42;;;;;;;1.20;0.93;;;18.40;71.70;;;;;;5038736;28;20444;-87
2023/11/08 08:05:10;;;;;;;1.30;0.77;;;18.40;71.70;;;;;;5055069;28;20436;-87
2023/11/08 08:07:37;;;;;;;1.20;0.90;;;18.40;71.60;;;;;;5055255;28;20463;-87
2023/11/08 08:10:07;;;;;;;1.30;0.90;;;18.40;71.60;;;;;;5055198;28;20984;-87
2023/11/08 08:12:34;;;;;;;1.00;0.70;;;18.40;71.70;;;;;;5055251;28;20896;-87
2023/11/08 08:15:01;;;;;;;1.77;0.70;;;18.50;71.80;;;;;;5054966;28;20439;-87
2023/11/08 08:17:28;;;;;;;1.20;0.80;;;18.60;72.60;;;;;;5055185;28;20532;-87
2023/11/08 08:19:55;;;;;;;0.90;0.70;;;18.50;71.60;;;;;;5055033;28;20430;-87
2023/11/08 08:22:23;;;;;;;1.20;0.80;;;18.50;71.50;;;;;;5054984;28;20767;-87
2023/11/08 08:24:50;;;;;;;1.53;1.30;;;18.60;71.60;;;;;;5054889;28;20532;-87
2023/11/08 08:27:18;;;;;;;1.30;1.00;;;18.70;71.50;;;;;;5054836;28;20540;-87
2023/11/08 08:29:46;;;;;;;1.10;0.70;;;18.70;71.20;;;;;;5054769;28;20443;-87
2023/11/08 08:32:12;;;;;;;1.00;0.70;;;18.90;71.20;;;;;;5054739;28;20441;-87
2023/11/08 08:34:39;;;;;;;1.50;1.20;;;18.90;71.00;;;;;;5054602;28;20950;-87
2023/11/08 08:37:07;;;;;;;1.00;0.60;;;19.00;70.80;;;;;;5054726;28;20495;-87
2023/11/08 08:39:34;;;;;;;1.10;0.80;;;19.10;70.70;;;;;;5054638;28;20474;-87
2023/11/08 08:42:01;;;;;;;1.00;0.70;;;19.10;70.70;;;;;;5054666;28;20432;-87
2023/11/08 08:44:30;;;;;;;1.30;0.90;;;19.10;70.60;;;;;;5054373;28;20502;-87
2023/11/08 08:46:57;;;;;;;1.20;0.80;;;19.10;70.60;;;;;;5054568;28;20814;-87
2023/11/08 08:49:24;;;;;;;0.97;0.70;;;19.10;70.50;;;;;;5054490;28;20436;-87
2023/11/08 08:51:51;;;;;;;1.20;1.00;;;19.20;70.60;;;;;;5054471;28;20967;-87
2023/11/08 08:54:20;;;;;;;1.30;0.80;;;19.20;70.60;;;;;;5054541;28;20927;-89
2023/11/08 08:56:47;;;;;;;1.80;0.77;;;19.20;70.40;;;;;;5054203;28;20490;-87
2023/11/08 08:59:14;;;;;;;1.10;0.70;;;19.30;70.40;;;;;;5054650;28;20449;-87
2023/11/08 09:01:42;;;;;;;1.10;0.80;;;19.30;70.20;;;;;;5054338;28;20523;-87
2023/11/08 09:04:09;;;;;;;1.10;0.90;;;19.40;70.30;;;;;;5054044;28;20437;-88
2023/11/08 09:06:38;;;;;;;1.73;0.93;;;19.50;70.10;;;;;;5054094;28;20925;-88
2023/11/08 09:09:11;;;;;;;1.10;0.90;;;19.70;69.90;;;;;;5053978;28;20497;-88
2023/11/08 09:11:39;;;;;;;0.93;0.70;;;19.80;69.60;;;;;;5053832;28;20495;-89
2023/11/08 09:14:08;;;;;;;1.40;0.87;;;20.10;69.10;;;;;;5053976;28;20436;-88
2023/11/08 09:16:34;;;;;;;1.50;0.80;;;20.50;68.30;;;;;;5053825;28;20520;-88
2023/11/08 09:19:03;;;;;;;1.10;0.80;;;20.80;68.00;;;;;;5053917;28;20781;-88
2023/11/08 09:21:30;;;;;;;1.83;0.87;;;21.10;67.10;;;;;;5053813;28;21008;-88
2023/11/08 09:23:58;;;;;;;1.30;0.77;;;21.30;66.60;;;;;;5053791;28;20852;-88
2023/11/08 09:26:25;;;;;;;1.20;0.70;;;21.60;66.00;;;;;;5053923;28;20433;-89
2023/11/08 09:28:52;;;;;;;2.37;1.00;;;21.80;65.60;;;;;;5053738;28;20433;-88
2023/11/08 09:31:19;;;;;;;1.10;0.80;;;22.00;65.30;;;;;;5053581;28;20795;-88
2023/11/08 09:33:46;;;;;;;1.07;0.77;;;22.10;64.90;;;;;;5053544;28;20516;-88
2023/11/08 09:36:14;;;;;;;1.30;0.80;;;22.10;64.90;;;;;;5053769;28;20560;-88
2023/11/08 09:38:41;;;;;;;1.03;0.80;;;22.00;65.30;;;;;;5053462;28;20548;-88
2023/11/08 09:41:09;;;;;;;1.17;0.90;;;21.80;65.30;;;;;;5053628;28;20528;-88
2023/11/08 09:43:39;;;;;;;1.30;0.70;;;21.70;65.80;;;;;;5053544;28;20528;-88
2023/11/08 09:46:07;;;;;;;1.37;0.80;;;21.60;66.10;;;;;;5053311;28;20773;-87
2023/11/08 09:48:34;;;;;;;1.00;0.70;;;21.40;66.30;;;;;;5053468;28;20438;-88
2023/11/08 09:51:02;;;;;;;1.33;0.80;;;21.40;66.70;;;;;;5053431;28;20520;-88
2023/11/08 09:53:30;;;;;;;1.27;0.83;;;21.20;67.00;;;;;;5053378;28;20491;-88
2023/11/08 09:55:58;;;;;;;1.23;0.80;;;21.20;67.40;;;;;;5053338;28;20480;-88
2023/11/08 09:58:25;;;;;;;1.00;0.70;;;21.50;67.00;;;;;;5053407;28;20447;-89
2023/11/08 10:00:55;;;;;;;1.60;1.10;;;21.70;66.20;;;;;;5052822;28;20437;-88
2023/11/08 10:03:24;;;;;;;1.10;0.70;;;21.80;66.10;;;;;;5053253;28;20449;-89
2023/11/08 10:05:52;;;;;;;1.10;0.70;;;21.70;66.10;;;;;;5053064;28;20531;-88
2023/11/08 10:08:18;;;;;;;1.20;0.90;;;21.80;66.00;;;;;;5053070;28;21019;-88
2023/11/08 10:10:48;;;;;;;2.10;0.83;;;21.70;66.10;;;;;;5053116;28;20441;-87
2023/11/08 10:13:16;;;;;;;1.23;0.90;;;21.60;66.40;;;;;;5053086;28;20465;-87
2023/11/08 10:15:44;;;;;;;1.20;0.77;;;21.40;67.70;;;;;;5052970;28;20441;-88
2023/11/08 10:18:10;;;;;;;1.10;0.70;;;21.30;67.10;;;;;;5053185;28;20445;-88
2023/11/08 10:20:37;;;;;;;1.00;0.70;;;21.20;67.40;;;;;;5052988;28;20441;-88
2023/11/08 10:23:07;;;;;;;2.03;0.93;;;21.10;68.70;;;;;;5053027;28;20441;-88
2023/11/08 10:25:34;;;;;;;2.30;0.87;;;21.00;68.40;;;;;;5052837;28;20841;-87
2023/11/08 10:28:04;;;;;;;1.43;0.77;;;20.90;68.50;;;;;;5053072;28;20434;-87
2023/11/08 10:30:38;;;;;;;1.40;0.70;;;20.80;68.80;;;;;;5053162;28;20437;-88
2023/11/08 10:33:09;;;;;;;1.40;0.80;;;20.70;69.10;;;;;;5053035;28;20460;-88
2023/11/08 10:35:37;;;;;;;1.13;0.80;;;20.60;69.40;;;;;;5052906;28;20527;-87
2023/11/08 10:38:05;;;;;;;0.90;0.60;;;20.60;69.70;;;;;;5052874;28;20495;-88
2023/11/08 10:40:33;;;;;;;1.00;0.70;;;20.60;69.80;;;;;;5052753;28;20528;-88
2023/11/08 10:43:03;;;;;;;1.00;0.70;;;20.60;69.90;;;;;;5052865;28;20440;-87
2023/11/08 10:45:32;;;;;;;1.57;0.70;;;20.60;70.00;;;;;;5052760;28;20437;-88
2023/11/08 10:48:00;;;;;;;1.20;0.80;;;20.60;70.30;;;;;;5053101;28;20566;-88
2023/11/08 10:50:28;;;;;;;1.20;0.80;;;20.60;70.40;;;;;;5052768;28;20528;-88
2023/11/08 10:52:56;;;;;;;1.17;0.73;;;20.60;70.40;;;;;;5052847;28;20445;-88
2023/11/08 10:55:25;;;;;;;2.30;0.90;;;20.70;70.50;;;;;;5052692;28;20434;-88
2023/11/08 10:57:54;;;;;;;1.20;0.80;;;20.70;70.40;;;;;;5052612;28;20983;-88
2023/11/08 11:00:23;;;;;;;1.17;0.83;;;20.70;70.50;;;;;;5052578;28;20464;-88
2023/11/08 11:02:53;;;;;;;1.00;0.70;;;20.70;70.60;;;;;;5052953;28;20449;-88
2023/11/08 11:05:22;;;;;;;1.10;0.80;;;20.70;70.70;;;;;;5052468;28;20469;-89
2023/11/08 11:07:52;;;;;;;1.10;0.80;;;20.70;70.80;;;;;;5052364;28;20471;-88
2023/11/08 11:10:19;;;;;;;1.57;0.87;;;20.70;70.90;;;;;;5052525;28;20527;-87
2023/11/08 11:12:56;;;;;;;1.13;0.70;;;20.60;71.00;;;;;;5052665;28;20559;-88
2023/11/08 11:15:36;;;;;;;1.67;0.80;;;20.70;71.10;;;;;;5056236;28;20437;-88
2023/11/08 11:18:05;;;;;;;1.57;0.80;;;20.60;71.10;;;;;;5056166;28;20476;-88
2023/11/08 11:20:38;;;;;;;1.60;1.00;;;20.60;71.20;;;;;;5056231;28;20999;-87
2023/11/08 11:23:29;;;;;;;1.10;0.80;;;20.50;71.30;;;;;;5056251;28;20437;-88
2023/11/08 11:25:56;;;;;;;1.20;0.80;;;20.50;71.40;;;;;;5056006;28;21007;-88
2023/11/08 11:28:55;;;;;;;1.10;0.90;;;20.50;71.40;;;;;;5056106;28;20857;-88
2023/11/08 11:31:37;;;;;;;1.00;0.70;;;20.50;71.50;;;;;;5055870;28;20968;-87
2023/11/08 11:34:42;;;;;;;0.90;0.60;;;20.50;71.80;;;;;;5055843;28;20429;-88
2023/11/08 11:37:12;;;;;;;1.17;0.80;;;20.40;71.90;;;;;;5055776;28;20972;-87
2023/11/08 11:39:40;;;;;;;1.10;0.80;;;20.40;71.90;;;;;;5056053;28;20503;-88
2023/11/08 11:42:08;;;;;;;1.73;0.83;;;20.40;72.10;;;;;;5055837;28;20968;-88
2023/11/08 11:44:42;;;;;;;1.10;0.80;;;20.40;72.20;;;;;;5055480;28;20451;-88
2023/11/08 11:47:13;;;;;;;1.00;0.70;;;20.40;72.10;;;;;;5055808;28;20438;-87
2023/11/08 11:49:45;;;;;;;1.10;0.80;;;20.40;72.00;;;;;;5055601;28;20527;-88
2023/11/08 11:52:13;;;;;;;1.30;0.80;;;20.40;72.10;;;;;;5055951;28;20479;-88
2023/11/08 11:54:45;;;;;;;1.00;0.70;;;20.40;72.20;;;;;;5055770;28;20476;-88
2023/11/08 11:57:12;;;;;;;1.00;0.70;;;20.30;72.20;;;;;;5055518;28;20480;-87
2023/11/08 11:59:39;;;;;;;1.07;0.60;;;20.30;72.20;;;;;;5055402;28;20486;-87
2023/11/08 12:02:06;;;;;;;1.00;0.70;;;20.30;72.30;;;;;;5055274;28;20437;-87
2023/11/08 12:04:34;;;;;;;1.10;0.80;;;20.30;73.20;;;;;;5055229;28;20480;-87
2023/11/08 12:07:01;;;;;;;1.03;0.80;;;20.30;72.30;;;;;;5055238;28;20457;-87
2023/11/08 12:09:28;;;;;;;1.60;0.90;;;20.30;72.30;;;;;;5055202;28;20465;-87
2023/11/08 12:11:55;;;;;;;1.00;0.90;;;20.30;72.30;;;;;;5054973;28;20563;-87
2023/11/08 12:14:22;;;;;;;1.00;0.80;;;20.30;72.20;;;;;;5055285;28;20519;-87
2023/11/08 12:16:49;;;;;;;1.00;0.70;;;20.30;72.30;;;;;;5055171;28;20563;-88
2023/11/08 12:19:17;;;;;;;1.00;0.70;;;20.30;72.30;;;;;;5055104;28;20977;-89
2023/11/08 12:21:46;;;;;;;1.10;0.80;;;20.30;72.40;;;;;;5055110;28;20441;-87
2023/11/08 12:24:13;;;;;;;2.10;0.87;;;20.30;73.30;;;;;;5054491;28;20430;-87
2023/11/08 12:26:41;;;;;;;1.03;0.80;;;20.20;72.50;;;;;;5054833;28;20444;-88
2023/11/08 12:29:09;;;;;;;1.10;0.70;;;20.20;72.60;;;;;;5054975;28;20460;-88
2023/11/08 12:31:37;;;;;;;1.60;0.90;;;20.20;72.60;;;;;;5054998;28;20516;-88
2023/11/08 12:34:08;;;;;;;1.00;0.70;;;20.20;72.70;;;;;;5054815;28;20473;-88
2023/11/08 12:36:39;;;;;;;1.30;0.67;;;20.20;72.70;;;;;;5054479;28;20503;-88
2023/11/08 12:39:13;;;;;;;1.60;0.80;;;20.20;72.70;;;;;;5054703;28;20468;-89
2023/11/08 12:41:44;;;;;;;1.30;0.83;;;20.20;72.70;;;;;;5054662;28;20457;-87
2023/11/08 12:44:12;;;;;;;1.20;0.80;;;20.20;72.70;;;;;;5054626;28;20480;-88
2023/11/08 12:46:51;;;;;;;1.07;0.73;;;20.20;72.70;;;;;;5054514;28;20455;-87
2023/11/08 12:49:19;;;;;;;1.00;0.70;;;20.20;73.50;;;;;;5054450;28;20443;-87
2023/11/08 12:51:47;;;;;;;3.20;0.70;;;20.20;72.70;;;;;;5054467;28;20433;-88